Monson, ME

07:14 PM EDT on Julie 05, 2015 (GMT -0400)
Abbot/Blanchard | | Change Station
CLOSE
Current Station
Personal Weather Stations
Location: Abbot, ME
Elevation: 735 ft
Nearby Weather Stations

Elev 735 ft 45.22 °N, 69.55 °W | Updated 2 seconds ago

Meestal Bewolk
Meestal Bewolk
71.6 °F
Feels Like 74 °F
N
1.0
Wind Veranderlik Wind from Wes
Gusts 2.0 mph

Vandag
High -- | Low -- °F
--% Chance of Precip.
Yesterday
High -- | Low -- °F
Precip. -- in
4:56 AM 8:28 PM
Waning Gibbous, 81% visible
Druk 30.01 in
Sigbaarheid 10.0 myle
Wolke Oop
Hitte Indeks 74 °F
Dou-punt 61 °F
Humiditeit 70%
Rainfall 0.00 in
Snow Depth Not available.
UV 1 out of 12
Pollen 4.60 out of 12
Air Quality Not available.
Flu Activity Not available.
METAR KMLT 052253Z AUTO 30006KT 10SM CLR 25/14 A3000 RMK AO2 SLP163 T02500139

More Conditions Fewer Conditions

Druk 30.01 in
Sigbaarheid 10.0 myle
Wolke Oop
Hitte Indeks 74 °F
Dou-punt 61 °F
Humiditeit 70%
Rainfall 0.00 in
Snow Depth Not available.
UV 1 out of 12
Pollen 4.60 out of 12
Air Quality Not available.
Flu Activity Not available.
METAR KMLT 052253Z AUTO 30006KT 10SM CLR 25/14 A3000 RMK AO2 SLP163 T02500139

More Conditions Fewer Conditions

10-Day Weather Forecast

×

Almanac

Astronomy

Jul. 05, 2015 Rise Set
Ware Tyd
Civil Twilight
Nautical Twilight
Astronomical Twilight
Maan
Length Of Visible Light
Length of Day
Tomorrow will be .
, % of the Moon is Illuminated

Today's Extremes

State Highs State Lows

Community

WunderPhotos

Upload Photos

1,835,419 photos uploaded!

WunderBlogs® & News

Nearby

Air Quality

  Air Quality AQ Index Pollutant
Not available.

Snow Depth

Station Depth Elevation

Earthquake Activity

Stad Distance Mag. Time & Date
Minimum magnitude displayed is 2.5.

Coastal Water Temperatures

Plek Temperatuur

Stations

Nearby Weather Stations

Station Location Temp Wind afkoel Dou-punt Humiditeit Wind Precip. Elev Opdateer Type